Time;durP1;ratioP1;P1;durP2;ratioP2;P2;SDS_P1;SDS_P2;PMS_P1;PMS_P2;Temp;Humidity;BMP_temperature;BMP_pressure;BME280_temperature;BME280_humidity;BME280_pressure;Samples;Min_cycle;Max_cycle;Signal;HPM_P1;HPM_P2
2022/11/01 00:02:07;;;;;;;;;;;18.70;94.10;;;;;;5137927;27;20266;-45
2022/11/01 00:04:33;;;;;;;;;;;18.70;94.30;;;;;;5137504;27;20277;-43
2022/11/01 00:06:58;;;;;;;;;;;18.70;94.00;;;;;;5137577;27;20307;-44
2022/11/01 00:09:24;;;;;;;;;;;18.70;94.00;;;;;;5137648;27;19911;-43
2022/11/01 00:11:49;;;;;;;;;;;18.80;94.00;;;;;;5137671;27;19911;-44
2022/11/01 00:14:17;;;;;;;;;;;18.80;94.00;;;;;;5137448;27;19907;-43
2022/11/01 00:16:43;;;;;;;;;;;18.80;93.90;;;;;;5137566;27;20324;-43
2022/11/01 00:19:08;;;;;;;;;;;18.80;93.90;;;;;;5137589;27;19908;-44
2022/11/01 00:21:34;;;;;;;;;;;18.80;93.90;;;;;;5137232;27;19907;-45
2022/11/01 00:23:59;;;;;;;;;;;18.80;93.90;;;;;;5137557;27;19959;-46
2022/11/01 00:26:25;;;;;;;;;;;18.80;93.90;;;;;;5137043;27;19998;-45
2022/11/01 00:28:51;;;;;;;;;;;18.80;93.90;;;;;;5137033;27;20370;-45
2022/11/01 00:31:18;;;;;;;;;;;18.80;93.90;;;;;;5136468;27;19911;-44
2022/11/01 00:33:43;;;;;;;;;;;18.80;93.90;;;;;;5136771;27;19937;-43
2022/11/01 00:36:09;;;;;;;;;;;18.80;93.90;;;;;;5137197;27;20003;-47
2022/11/01 00:38:35;;;;;;;;;;;18.80;93.90;;;;;;5136903;27;19907;-43
2022/11/01 00:41:02;;;;;;;;;;;18.80;93.90;;;;;;5137438;27;19911;-46
2022/11/01 00:43:31;;;;;;;;;;;18.80;93.90;;;;;;5137125;27;20379;-44
2022/11/01 00:45:57;;;;;;;;;;;18.80;93.90;;;;;;5136823;27;19927;-44
2022/11/01 00:48:22;;;;;;;;;;;18.80;93.90;;;;;;5136853;27;20354;-43
2022/11/01 00:50:48;;;;;;;;;;;18.80;93.90;;;;;;5136972;27;20011;-44
2022/11/01 00:53:14;;;;;;;;;;;18.80;93.90;;;;;;5136783;27;19960;-44
2022/11/01 00:55:39;;;;;;;;;;;18.70;93.90;;;;;;5136537;27;19908;-45
2022/11/01 00:58:05;;;;;;;;;;;18.80;93.90;;;;;;5118358;27;19914;-44
2022/11/01 01:00:30;;;;;;;;;;;18.80;93.90;;;;;;5136657;27;19911;-44
2022/11/01 01:02:56;;;;;;;;;;;18.70;93.90;;;;;;5136683;27;19942;-44
2022/11/01 01:05:21;;;;;;;;;;;18.70;93.90;;;;;;5136952;27;19908;-44
2022/11/01 01:07:47;;;;;;;;;;;18.70;93.90;;;;;;5136344;27;19942;-47
2022/11/01 01:10:13;;;;;;;;;;;18.70;93.90;;;;;;5136502;27;19911;-45
2022/11/01 01:12:38;;;;;;;;;;;18.80;93.90;;;;;;5136504;27;19947;-46
2022/11/01 01:15:04;;;;;;;;;;;18.70;93.90;;;;;;5136310;27;19976;-46
2022/11/01 01:17:30;;;;;;;;;;;18.70;94.00;;;;;;5135920;27;19907;-45
2022/11/01 01:19:55;;;;;;;;;;;18.70;94.00;;;;;;5117703;27;19956;-45
2022/11/01 01:22:21;;;;;;;;;;;18.70;94.00;;;;;;5135888;27;19908;-44
2022/11/01 01:24:46;;;;;;;;;;;18.70;93.90;;;;;;5136027;27;19960;-44
2022/11/01 01:27:13;;;;;;;;;;;18.70;94.00;;;;;;5136164;27;19907;-46
2022/11/01 01:29:40;;;;;;;;;;;18.70;94.20;;;;;;5136129;27;19918;-45
2022/11/01 01:32:13;;;;;;;;;;;18.70;93.90;;;;;;5135863;27;19950;-44
2022/11/01 01:34:38;;;;;;;;;;;18.70;94.00;;;;;;5136205;27;20378;-45
2022/11/01 01:37:05;;;;;;;;;;;18.70;94.00;;;;;;5135750;27;19972;-46
2022/11/01 01:39:30;;;;;;;;;;;18.70;93.90;;;;;;5135895;27;19923;-45
2022/11/01 01:41:56;;;;;;;;;;;18.70;93.90;;;;;;5134997;27;19907;-44
2022/11/01 01:44:40;;;;;;;;;;;18.80;93.90;;;;;;5135920;27;19990;-45
2022/11/01 01:47:06;;;;;;;;;;;18.80;93.90;;;;;;5135794;27;19995;-45
2022/11/01 01:49:32;;;;;;;;;;;18.80;93.80;;;;;;5135429;27;20277;-46
2022/11/01 01:51:57;;;;;;;;;;;18.80;94.10;;;;;;5134488;27;19926;-44
2022/11/01 01:54:23;;;;;;;;;;;18.70;93.90;;;;;;5136003;27;19908;-45
2022/11/01 01:56:48;;;;;;;;;;;18.80;93.90;;;;;;5135135;27;20372;-46
2022/11/01 01:59:14;;;;;;;;;;;18.80;93.90;;;;;;5135570;27;19908;-46
2022/11/01 02:01:39;;;;;;;;;;;18.70;93.90;;;;;;5135550;27;19907;-46
2022/11/01 02:04:09;;;;;;;;;;;18.70;93.90;;;;;;5135237;27;20276;-44
2022/11/01 02:06:35;;;;;;;;;;;18.70;93.90;;;;;;5135605;27;19912;-45
2022/11/01 02:09:02;;;;;;;;;;;18.70;93.90;;;;;;5135005;27;19923;-44
2022/11/01 02:11:27;;;;;;;;;;;18.70;93.80;;;;;;5134951;27;19908;-45
2022/11/01 02:13:53;;;;;;;;;;;18.80;93.90;;;;;;5135241;27;19914;-45
2022/11/01 02:16:21;;;;;;;;;;;18.70;93.80;;;;;;5135325;27;20040;-43
2022/11/01 02:19:04;;;;;;;;;;;18.80;93.90;;;;;;5135312;27;20370;-44
2022/11/01 02:21:53;;;;;;;;;;;18.80;93.90;;;;;;5135169;27;20386;-45
2022/11/01 02:24:22;;;;;;;;;;;18.80;93.90;;;;;;5134930;27;19962;-44
2022/11/01 02:26:47;;;;;;;;;;;18.80;93.80;;;;;;5134923;27;20265;-46
2022/11/01 02:29:31;;;;;;;;;;;18.70;93.80;;;;;;5135161;27;19916;-48
2022/11/01 02:31:57;;;;;;;;;;;18.70;93.80;;;;;;5116647;28;19915;-45
2022/11/01 02:34:30;;;;;;;;;;;18.80;93.90;;;;;;5134892;27;19908;-46
2022/11/01 02:37:01;;;;;;;;;;;18.70;93.80;;;;;;5116662;28;19907;-46
2022/11/01 02:39:29;;;;;;;;;;;18.80;93.90;;;;;;5134776;27;20259;-47
2022/11/01 02:41:57;;;;;;;;;;;18.80;93.80;;;;;;5134936;28;19914;-45
2022/11/01 02:44:24;;;;;;;;;;;18.80;93.80;;;;;;5134998;28;19907;-44
2022/11/01 02:47:00;;;;;;;;;;;18.70;93.80;;;;;;5116418;28;19914;-44
2022/11/01 02:49:27;;;;;;;;;;;18.80;93.80;;;;;;5133735;28;19923;-46
2022/11/01 02:51:54;;;;;;;;;;;18.70;93.80;;;;;;5134620;28;19911;-44
2022/11/01 02:54:21;;;;;;;;;;;18.70;93.90;;;;;;5137012;27;19907;-46
2022/11/01 02:56:46;;;;;;;;;;;18.70;93.80;;;;;;5137641;27;19908;-45
2022/11/01 02:59:34;;;;;;;;;;;18.70;93.80;;;;;;5139128;27;19907;-44
2022/11/01 03:02:04;;;;;;;;;;;18.70;93.90;;;;;;5138994;27;19911;-44
2022/11/01 03:04:29;;;;;;;;;;;18.70;93.80;;;;;;5138703;27;20280;-44
2022/11/01 03:06:57;;;;;;;;;;;18.70;93.80;;;;;;5138750;27;19908;-44
2022/11/01 03:09:23;;;;;;;;;;;18.70;93.80;;;;;;5138624;27;19915;-45
2022/11/01 03:11:53;;;;;;;;;;;18.80;93.90;;;;;;5138855;27;19956;-44
2022/11/01 03:14:30;;;;;;;;;;;18.70;93.80;;;;;;5138941;27;19908;-46
2022/11/01 03:17:02;;;;;;;;;;;18.70;93.80;;;;;;5138760;27;20350;-44
2022/11/01 03:19:43;;;;;;;;;;;18.80;93.80;;;;;;5138658;27;19907;-45
2022/11/01 03:22:08;;;;;;;;;;;18.70;93.80;;;;;;5138498;27;19915;-43
2022/11/01 03:24:42;;;;;;;;;;;18.70;93.80;;;;;;5138623;27;19907;-44
2022/11/01 03:27:14;;;;;;;;;;;18.70;93.80;;;;;;5138719;27;19949;-46
2022/11/01 03:29:41;;;;;;;;;;;18.70;93.80;;;;;;5138264;27;20006;-44
2022/11/01 03:32:07;;;;;;;;;;;18.70;93.80;;;;;;5138269;27;20002;-46
2022/11/01 03:34:33;;;;;;;;;;;18.70;93.80;;;;;;5138450;27;20004;-45
2022/11/01 03:37:01;;;;;;;;;;;18.70;93.80;;;;;;5138404;27;20011;-44
2022/11/01 03:39:40;;;;;;;;;;;18.70;93.80;;;;;;5138127;27;19913;-47
2022/11/01 03:42:09;;;;;;;;;;;18.70;93.80;;;;;;5138107;27;20391;-45
2022/11/01 03:44:39;;;;;;;;;;;18.70;93.80;;;;;;5138241;27;19908;-46
2022/11/01 03:47:06;;;;;;;;;;;18.70;93.80;;;;;;5138241;27;19907;-45
2022/11/01 03:49:31;;;;;;;;;;;18.70;93.80;;;;;;5137852;27;19919;-43
2022/11/01 03:51:57;;;;;;;;;;;18.80;93.80;;;;;;5138183;27;19953;-44
2022/11/01 03:54:22;;;;;;;;;;;18.80;93.80;;;;;;5137854;27;19912;-44
2022/11/01 03:56:48;;;;;;;;;;;18.80;93.70;;;;;;5137820;27;20001;-45
2022/11/01 03:59:13;;;;;;;;;;;18.70;93.70;;;;;;5137742;27;19921;-46
2022/11/01 04:01:39;;;;;;;;;;;18.80;93.70;;;;;;5137937;27;19914;-44
2022/11/01 04:04:04;;;;;;;;;;;18.80;93.70;;;;;;5137603;27;20254;-44
2022/11/01 04:06:29;;;;;;;;;;;18.80;93.90;;;;;;5137735;27;19907;-47
2022/11/01 04:08:55;;;;;;;;;;;18.80;93.70;;;;;;5137801;27;19919;-44
2022/11/01 04:11:20;;;;;;;;;;;18.80;93.70;;;;;;5137888;27;20003;-44
2022/11/01 04:13:46;;;;;;;;;;;18.80;93.70;;;;;;5137446;27;20307;-43
2022/11/01 04:21:40;;;;;;;;;;;18.80;93.70;;;;;;5137474;27;19915;-43
2022/11/01 04:24:06;;;;;;;;;;;18.80;93.70;;;;;;5137408;27;20274;-44
2022/11/01 04:26:31;;;;;;;;;;;18.80;93.70;;;;;;5137393;27;20366;-43
2022/11/01 04:28:57;;;;;;;;;;;18.80;93.70;;;;;;5137123;27;19923;-44
2022/11/01 04:31:25;;;;;;;;;;;18.80;93.70;;;;;;5137371;27;19907;-45
2022/11/01 04:33:51;;;;;;;;;;;18.70;93.70;;;;;;5118928;27;19918;-45
2022/11/01 04:36:17;;;;;;;;;;;18.70;93.70;;;;;;5118957;27;19908;-46
2022/11/01 04:38:42;;;;;;;;;;;18.70;93.70;;;;;;5137013;27;20002;-46
2022/11/01 04:41:08;;;;;;;;;;;18.70;93.80;;;;;;5137294;27;19912;-44
2022/11/01 04:43:33;;;;;;;;;;;18.70;93.80;;;;;;5136909;27;20336;-46
2022/11/01 04:45:59;;;;;;;;;;;18.70;93.80;;;;;;5136874;27;19908;-44
2022/11/01 04:48:25;;;;;;;;;;;18.70;93.80;;;;;;5137007;27;19907;-45
2022/11/01 04:50:51;;;;;;;;;;;18.70;93.80;;;;;;5137105;27;20013;-44
2022/11/01 04:53:17;;;;;;;;;;;18.70;93.80;;;;;;5137230;27;19947;-44
2022/11/01 04:55:42;;;;;;;;;;;18.70;93.80;;;;;;5135628;27;19915;-44
2022/11/01 04:58:09;;;;;;;;;;;18.70;93.80;;;;;;5136887;27;19914;-47
2022/11/01 05:00:35;;;;;;;;;;;18.70;93.80;;;;;;5136803;27;19907;-44
2022/11/01 05:03:07;;;;;;;;;;;18.70;93.80;;;;;;5136477;27;19917;-44
2022/11/01 05:05:33;;;;;;;;;;;18.70;93.80;;;;;;5136798;27;20002;-44
2022/11/01 05:08:09;;;;;;;;;;;18.70;93.80;;;;;;5136812;27;19926;-45
2022/11/01 05:10:35;;;;;;;;;;;18.70;93.80;;;;;;5136528;27;20013;-47
2022/11/01 05:13:01;;;;;;;;;;;18.70;93.80;;;;;;5136744;27;19912;-47
2022/11/01 05:15:26;;;;;;;;;;;18.70;93.70;;;;;;5136262;27;19914;-43
2022/11/01 05:17:52;;;;;;;;;;;18.70;93.80;;;;;;5136247;27;19908;-46
2022/11/01 05:20:18;;;;;;;;;;;18.70;93.70;;;;;;5136501;27;19907;-44
2022/11/01 05:22:43;;;;;;;;;;;18.70;93.70;;;;;;5136439;27;19911;-44
2022/11/01 05:25:09;;;;;;;;;;;18.70;93.70;;;;;;5136337;27;19953;-45
2022/11/01 05:27:35;;;;;;;;;;;18.70;93.70;;;;;;5136242;27;20270;-44
2022/11/01 05:30:01;;;;;;;;;;;18.80;93.70;;;;;;5136197;27;19920;-46
2022/11/01 05:32:26;;;;;;;;;;;18.80;93.60;;;;;;5136119;27;20027;-44
2022/11/01 05:34:52;;;;;;;;;;;18.80;93.60;;;;;;5136006;27;19929;-47
2022/11/01 05:37:17;;;;;;;;;;;18.70;93.60;;;;;;5135818;27;19908;-45
2022/11/01 05:39:43;;;;;;;;;;;18.80;93.60;;;;;;5136412;27;19914;-44
2022/11/01 05:42:08;;;;;;;;;;;18.80;93.60;;;;;;5135706;27;19907;-44
2022/11/01 05:44:34;;;;;;;;;;;18.70;93.60;;;;;;5135902;27;19908;-44
2022/11/01 05:47:01;;;;;;;;;;;18.70;93.60;;;;;;5135554;27;20273;-47
2022/11/01 05:49:27;;;;;;;;;;;18.80;93.60;;;;;;5135747;27;19955;-46
2022/11/01 05:51:52;;;;;;;;;;;18.80;93.60;;;;;;5135784;27;19907;-44
2022/11/01 05:54:18;;;;;;;;;;;18.70;93.60;;;;;;5135361;27;19907;-44
2022/11/01 05:56:43;;;;;;;;;;;18.70;93.60;;;;;;5135482;27;19907;-45
2022/11/01 05:59:09;;;;;;;;;;;18.70;93.60;;;;;;5135696;27;19913;-46
2022/11/01 06:01:34;;;;;;;;;;;18.70;93.60;;;;;;5135200;27;19908;-44
2022/11/01 06:04:00;;;;;;;;;;;18.70;93.60;;;;;;5135591;27;19911;-48
2022/11/01 06:06:27;;;;;;;;;;;18.70;93.70;;;;;;5135506;27;19907;-44
2022/11/01 06:08:53;;;;;;;;;;;18.70;93.70;;;;;;5135634;27;19926;-46
2022/11/01 06:11:18;;;;;;;;;;;18.70;93.70;;;;;;5135775;27;19907;-45
2022/11/01 06:13:43;;;;;;;;;;;18.70;93.70;;;;;;5116954;27;20330;-44
2022/11/01 06:16:09;;;;;;;;;;;18.70;93.70;;;;;;5135318;27;19914;-44
2022/11/01 06:18:34;;;;;;;;;;;18.70;93.70;;;;;;5135011;27;19913;-47
2022/11/01 06:21:00;;;;;;;;;;;18.70;93.70;;;;;;5135335;27;19914;-44
2022/11/01 06:23:25;;;;;;;;;;;18.70;93.60;;;;;;5134846;27;19915;-45
2022/11/01 06:25:57;;;;;;;;;;;18.70;93.70;;;;;;5135287;27;19946;-43
2022/11/01 06:28:23;;;;;;;;;;;18.70;93.70;;;;;;5134135;27;19915;-44
2022/11/01 06:30:48;;;;;;;;;;;18.70;93.70;;;;;;5135184;27;19907;-44
2022/11/01 06:33:14;;;;;;;;;;;18.70;93.70;;;;;;5135003;27;20000;-43
2022/11/01 06:35:39;;;;;;;;;;;18.70;93.70;;;;;;5133671;27;20424;-44
2022/11/01 06:38:06;;;;;;;;;;;18.70;93.70;;;;;;5135062;27;19915;-45
2022/11/01 06:40:32;;;;;;;;;;;18.70;93.60;;;;;;5135146;27;19986;-44
2022/11/01 06:42:58;;;;;;;;;;;18.70;93.60;;;;;;5135099;28;19922;-44
2022/11/01 06:45:23;;;;;;;;;;;18.70;93.60;;;;;;5134845;28;19908;-43
2022/11/01 06:47:49;;;;;;;;;;;18.80;93.60;;;;;;5135025;28;19914;-44
2022/11/01 06:50:14;;;;;;;;;;;18.70;93.50;;;;;;5134835;28;19922;-46
2022/11/01 06:52:40;;;;;;;;;;;18.80;93.50;;;;;;5134581;28;20007;-44
2022/11/01 06:55:05;;;;;;;;;;;18.80;93.70;;;;;;5134908;28;19907;-44
2022/11/01 06:57:31;;;;;;;;;;;18.80;93.50;;;;;;5134910;28;20273;-44
2022/11/01 06:59:57;;;;;;;;;;;18.80;93.40;;;;;;5134895;28;19908;-43
2022/11/01 07:02:24;;;;;;;;;;;18.80;93.40;;;;;;5134990;28;19914;-45
2022/11/01 07:04:50;;;;;;;;;;;18.90;93.40;;;;;;5134704;28;20415;-44
2022/11/01 07:07:15;;;;;;;;;;;18.90;93.40;;;;;;5134522;28;19967;-45
2022/11/01 07:09:41;;;;;;;;;;;18.90;93.30;;;;;;5134467;28;20022;-45
2022/11/01 07:12:06;;;;;;;;;;;18.90;93.30;;;;;;5134360;28;19930;-45
2022/11/01 07:14:32;;;;;;;;;;;18.90;93.30;;;;;;5134410;28;19915;-46
2022/11/01 07:16:57;;;;;;;;;;;18.90;93.30;;;;;;5134679;28;19915;-45
2022/11/01 07:19:22;;;;;;;;;;;18.90;93.30;;;;;;5134369;28;19908;-46
2022/11/01 07:21:48;;;;;;;;;;;18.90;93.30;;;;;;5134457;28;19957;-45
2022/11/01 07:24:14;;;;;;;;;;;18.90;93.30;;;;;;5134856;28;20393;-44
2022/11/01 07:26:39;;;;;;;;;;;18.90;93.30;;;;;;5134592;28;20016;-44
2022/11/01 07:29:05;;;;;;;;;;;18.90;93.30;;;;;;5134532;28;19916;-43
2022/11/01 07:31:32;;;;;;;;;;;18.90;93.30;;;;;;5134288;28;19911;-44
2022/11/01 07:33:58;;;;;;;;;;;18.90;93.30;;;;;;5134634;28;19911;-47
2022/11/01 07:36:23;;;;;;;;;;;18.90;93.30;;;;;;5134437;28;19908;-44
2022/11/01 07:38:49;;;;;;;;;;;18.90;93.30;;;;;;5134401;27;19907;-43
2022/11/01 07:41:14;;;;;;;;;;;18.90;93.30;;;;;;5119278;27;19907;-45
2022/11/01 07:43:40;;;;;;;;;;;18.90;93.30;;;;;;5138113;27;19907;-45
2022/11/01 07:46:06;;;;;;;;;;;18.90;93.30;;;;;;5137831;27;20354;-46
2022/11/01 07:48:31;;;;;;;;;;;18.90;93.30;;;;;;5137938;27;19918;-47
2022/11/01 07:50:57;;;;;;;;;;;18.90;93.30;;;;;;5137773;27;19943;-44
2022/11/01 07:53:22;;;;;;;;;;;18.90;93.30;;;;;;5138084;27;19998;-46
2022/11/01 07:55:48;;;;;;;;;;;18.90;93.30;;;;;;5136804;27;19998;-47
2022/11/01 07:58:14;;;;;;;;;;;18.90;93.30;;;;;;5136733;27;19907;-44
2022/11/01 08:00:40;;;;;;;;;;;18.90;93.30;;;;;;5137813;27;19953;-46
2022/11/01 08:03:05;;;;;;;;;;;18.90;93.30;;;;;;5137865;27;19908;-46
2022/11/01 08:05:31;;;;;;;;;;;18.90;93.30;;;;;;5137776;27;20373;-47
2022/11/01 08:07:57;;;;;;;;;;;18.90;93.30;;;;;;5137362;27;19962;-45
2022/11/01 08:10:23;;;;;;;;;;;18.90;93.30;;;;;;5137356;27;19916;-44
2022/11/01 08:12:48;;;;;;;;;;;19.00;93.30;;;;;;5137734;27;19914;-45
2022/11/01 08:15:13;;;;;;;;;;;19.00;93.30;;;;;;5137726;27;19921;-44
2022/11/01 08:17:39;;;;;;;;;;;18.90;93.30;;;;;;5137638;27;19915;-45
2022/11/01 08:20:05;;;;;;;;;;;19.00;93.30;;;;;;5136271;27;19907;-44
2022/11/01 08:22:31;;;;;;;;;;;19.00;93.30;;;;;;5137273;27;19911;-47
2022/11/01 08:24:57;;;;;;;;;;;19.00;93.30;;;;;;5119051;27;20345;-47
2022/11/01 08:27:22;;;;;;;;;;;19.00;93.30;;;;;;5137146;27;19907;-46
2022/11/01 08:29:47;;;;;;;;;;;19.00;93.30;;;;;;5137284;27;19916;-45
2022/11/01 08:32:13;;;;;;;;;;;19.00;93.30;;;;;;5137637;27;20400;-44
2022/11/01 08:34:38;;;;;;;;;;;18.90;93.20;;;;;;5118646;27;19915;-44
2022/11/01 08:37:05;;;;;;;;;;;19.00;93.30;;;;;;5137079;27;19970;-44
2022/11/01 08:39:31;;;;;;;;;;;19.00;93.30;;;;;;5136819;27;20270;-46
2022/11/01 08:41:58;;;;;;;;;;;19.00;93.30;;;;;;5136955;27;20423;-44
2022/11/01 08:44:23;;;;;;;;;;;18.90;93.20;;;;;;5137050;27;19949;-45
2022/11/01 08:46:52;;;;;;;;;;;18.90;93.20;;;;;;5136718;27;19908;-44
2022/11/01 08:49:17;;;;;;;;;;;19.00;93.30;;;;;;5136688;27;19962;-46
2022/11/01 08:51:43;;;;;;;;;;;19.00;93.30;;;;;;5136080;27;19914;-44
2022/11/01 08:54:08;;;;;;;;;;;18.90;93.20;;;;;;5136646;27;19907;-47
2022/11/01 08:56:34;;;;;;;;;;;18.90;93.30;;;;;;5118498;27;20312;-47
2022/11/01 08:58:59;;;;;;;;;;;18.90;93.20;;;;;;5136587;27;19914;-47
2022/11/01 09:01:28;;;;;;;;;;;18.90;93.30;;;;;;5136850;27;20044;-44
2022/11/01 09:03:57;;;;;;;;;;;18.90;93.20;;;;;;5136527;27;20005;-44
2022/11/01 09:06:23;;;;;;;;;;;18.90;93.20;;;;;;5118046;27;20007;-44
2022/11/01 09:08:49;;;;;;;;;;;18.90;93.20;;;;;;5136664;27;19919;-46
2022/11/01 09:11:14;;;;;;;;;;;18.90;93.30;;;;;;5136636;27;19911;-44
2022/11/01 09:13:40;;;;;;;;;;;18.90;93.20;;;;;;5136337;27;19921;-43
2022/11/01 09:16:06;;;;;;;;;;;18.90;93.20;;;;;;5136510;27;19907;-46
2022/11/01 09:18:32;;;;;;;;;;;18.90;93.30;;;;;;5136099;27;20286;-46
2022/11/01 09:20:57;;;;;;;;;;;18.90;93.30;;;;;;5136194;27;19908;-44
2022/11/01 09:23:22;;;;;;;;;;;18.90;93.30;;;;;;5136190;27;19908;-46
2022/11/01 09:25:48;;;;;;;;;;;18.90;93.30;;;;;;5135974;27;20390;-44
2022/11/01 09:28:13;;;;;;;;;;;18.90;93.30;;;;;;5135932;27;19912;-45
2022/11/01 09:30:39;;;;;;;;;;;18.90;93.30;;;;;;5135765;27;20014;-43
2022/11/01 09:33:05;;;;;;;;;;;18.90;93.30;;;;;;5136137;27;19914;-44
2022/11/01 09:35:31;;;;;;;;;;;18.90;93.30;;;;;;5136372;27;19918;-47
2022/11/01 09:37:57;;;;;;;;;;;18.90;93.50;;;;;;5135913;27;19907;-46
2022/11/01 09:40:23;;;;;;;;;;;18.90;93.30;;;;;;5135859;27;19912;-46
2022/11/01 09:42:49;;;;;;;;;;;18.90;93.30;;;;;;5135460;27;20008;-44
2022/11/01 09:45:22;;;;;;;;;;;18.90;93.30;;;;;;5135382;27;19911;-48
2022/11/01 09:47:52;;;;;;;;;;;18.90;93.30;;;;;;5135492;27;19908;-48
2022/11/01 09:50:21;;;;;;;;;;;18.90;93.30;;;;;;5135325;27;19915;-44
2022/11/01 09:52:48;;;;;;;;;;;18.90;93.30;;;;;;5135577;27;19908;-45
2022/11/01 09:55:14;;;;;;;;;;;18.90;93.30;;;;;;5135243;27;20353;-45
2022/11/01 09:57:44;;;;;;;;;;;18.90;93.30;;;;;;5135108;27;19907;-49
2022/11/01 10:00:12;;;;;;;;;;;18.90;93.30;;;;;;5135386;27;19907;-50
2022/11/01 10:02:49;;;;;;;;;;;18.90;93.30;;;;;;5135491;27;19908;-47
2022/11/01 10:05:20;;;;;;;;;;;18.90;93.30;;;;;;5135279;27;19911;-44
2022/11/01 10:08:03;;;;;;;;;;;18.90;93.30;;;;;;5135287;27;20306;-44
2022/11/01 10:10:42;;;;;;;;;;;18.90;93.30;;;;;;5116887;27;19922;-45
2022/11/01 10:13:20;;;;;;;;;;;18.90;93.30;;;;;;5134820;27;19951;-46
2022/11/01 10:15:57;;;;;;;;;;;18.90;93.30;;;;;;5135384;27;19907;-48
2022/11/01 10:18:29;;;;;;;;;;;18.90;93.30;;;;;;5135333;27;19907;-47
2022/11/01 10:20:55;;;;;;;;;;;18.90;93.30;;;;;;5135026;27;19908;-48
2022/11/01 10:23:30;;;;;;;;;;;18.90;93.30;;;;;;5116846;27;19919;-47
2022/11/01 10:25:55;;;;;;;;;;;18.90;93.30;;;;;;5134994;27;20354;-45
2022/11/01 10:28:31;;;;;;;;;;;18.90;93.30;;;;;;5135131;27;19937;-46
2022/11/01 10:31:00;;;;;;;;;;;18.90;93.30;;;;;;5135106;27;19915;-45
2022/11/01 10:33:44;;;;;;;;;;;18.90;93.30;;;;;;5134511;27;19907;-44
2022/11/01 10:36:24;;;;;;;;;;;18.90;93.30;;;;;;5134987;27;19919;-44
2022/11/01 10:38:55;;;;;;;;;;;18.90;93.30;;;;;;5134693;27;19956;-44
2022/11/01 10:41:35;;;;;;;;;;;18.90;93.30;;;;;;5134893;27;19950;-44
2022/11/01 10:44:03;;;;;;;;;;;18.90;93.30;;;;;;5134868;28;20318;-47
2022/11/01 10:46:39;;;;;;;;;;;18.90;93.30;;;;;;5134850;28;20345;-44
2022/11/01 10:49:11;;;;;;;;;;;18.90;93.30;;;;;;5134917;28;20050;-45
2022/11/01 10:51:39;;;;;;;;;;;18.90;93.30;;;;;;5134660;28;19907;-44
2022/11/01 10:54:09;;;;;;;;;;;18.90;93.30;;;;;;5134751;28;19907;-43
2022/11/01 10:56:40;;;;;;;;;;;18.90;93.30;;;;;;5134503;28;20362;-46
2022/11/01 10:59:08;;;;;;;;;;;18.90;93.30;;;;;;5134847;28;20243;-47
2022/11/01 11:01:41;;;;;;;;;;;18.90;93.30;;;;;;5134594;28;19907;-45
2022/11/01 11:04:09;;;;;;;;;;;18.90;93.30;;;;;;5134426;28;20338;-49
2022/11/01 11:06:35;;;;;;;;;;;18.90;93.30;;;;;;5116644;28;19908;-48
2022/11/01 11:09:03;;;;;;;;;;;18.90;93.30;;;;;;5134613;28;19923;-44
2022/11/01 11:11:46;;;;;;;;;;;18.90;93.40;;;;;;5134132;28;19907;-46
2022/11/01 11:14:12;;;;;;;;;;;18.90;93.40;;;;;;5134712;27;20269;-46
2022/11/01 11:16:39;;;;;;;;;;;18.90;93.40;;;;;;5138698;27;19907;-44
2022/11/01 11:19:18;;;;;;;;;;;18.90;93.40;;;;;;5120285;27;20322;-44
2022/11/01 11:21:45;;;;;;;;;;;18.90;93.40;;;;;;5138664;27;19907;-48
2022/11/01 11:24:19;;;;;;;;;;;18.90;93.40;;;;;;5138701;27;20029;-44
2022/11/01 11:26:47;;;;;;;;;;;18.90;93.40;;;;;;5138283;27;19914;-46
2022/11/01 11:29:23;;;;;;;;;;;18.90;93.40;;;;;;5138232;27;19915;-43
2022/11/01 11:31:54;;;;;;;;;;;18.90;93.40;;;;;;5138129;27;19930;-47
2022/11/01 11:34:26;;;;;;;;;;;18.90;93.40;;;;;;5138603;27;19933;-47
2022/11/01 11:36:53;;;;;;;;;;;18.90;93.40;;;;;;5138111;27;20431;-46
2022/11/01 11:39:29;;;;;;;;;;;18.90;93.40;;;;;;5138292;27;19952;-45
2022/11/01 11:42:10;;;;;;;;;;;18.90;93.40;;;;;;5138375;27;19907;-45
2022/11/01 11:44:40;;;;;;;;;;;18.90;93.40;;;;;;5137861;27;19907;-45
2022/11/01 11:47:16;;;;;;;;;;;18.90;93.40;;;;;;5138197;27;19961;-45
2022/11/01 11:49:42;;;;;;;;;;;18.90;93.40;;;;;;5119592;27;19919;-44
2022/11/01 11:52:13;;;;;;;;;;;18.90;93.40;;;;;;5137811;27;19915;-46
2022/11/01 11:54:39;;;;;;;;;;;18.90;93.40;;;;;;5138141;27;19907;-48
2022/11/01 11:57:10;;;;;;;;;;;18.90;93.40;;;;;;5137707;27;19907;-48
2022/11/01 11:59:36;;;;;;;;;;;18.90;93.40;;;;;;5137751;27;19994;-45
2022/11/01 12:02:04;;;;;;;;;;;18.90;93.30;;;;;;5137519;27;19907;-45
2022/11/01 12:04:35;;;;;;;;;;;18.90;93.30;;;;;;5137786;27;20058;-44
2022/11/01 12:07:00;;;;;;;;;;;18.90;93.30;;;;;;5119100;27;19914;-46
2022/11/01 12:09:45;;;;;;;;;;;18.90;93.30;;;;;;5137744;27;19915;-46
2022/11/01 12:12:13;;;;;;;;;;;18.90;93.30;;;;;;5137735;27;19912;-45
2022/11/01 12:14:40;;;;;;;;;;;19.00;93.50;;;;;;5137370;27;19912;-44
2022/11/01 12:17:20;;;;;;;;;;;18.90;93.30;;;;;;5137493;27;20254;-47
2022/11/01 12:19:46;;;;;;;;;;;19.00;93.30;;;;;;5137637;27;19993;-45
2022/11/01 12:22:11;;;;;;;;;;;18.90;93.30;;;;;;5137771;27;19942;-44
2022/11/01 12:24:46;;;;;;;;;;;18.90;93.30;;;;;;5135984;27;19946;-47
2022/11/01 12:27:13;;;;;;;;;;;19.00;93.30;;;;;;5137410;27;19911;-44
2022/11/01 12:29:49;;;;;;;;;;;19.00;93.50;;;;;;5137386;27;20258;-45
2022/11/01 12:32:38;;;;;;;;;;;19.00;93.30;;;;;;5136919;27;20425;-44
2022/11/01 12:35:10;;;;;;;;;;;19.00;93.30;;;;;;5110771;27;19999;-45
2022/11/01 12:37:50;;;;;;;;;;;19.00;93.30;;;;;;5136959;27;19908;-44
2022/11/01 12:40:16;;;;;;;;;;;19.00;93.30;;;;;;5137245;27;19907;-44
2022/11/01 12:42:44;;;;;;;;;;;18.90;93.30;;;;;;5136773;27;19918;-43
2022/11/01 12:45:14;;;;;;;;;;;19.00;93.30;;;;;;5118509;27;20384;-44
2022/11/01 12:47:42;;;;;;;;;;;19.00;93.30;;;;;;5136932;27;19907;-45
2022/11/01 12:50:22;;;;;;;;;;;18.90;93.30;;;;;;5136741;27;19968;-46
2022/11/01 12:52:54;;;;;;;;;;;18.90;93.30;;;;;;5136584;27;20456;-45
2022/11/01 12:55:29;;;;;;;;;;;18.90;93.30;;;;;;5136594;27;19907;-45
2022/11/01 12:57:54;;;;;;;;;;;18.90;93.30;;;;;;5136863;27;19908;-46
2022/11/01 13:00:20;;;;;;;;;;;18.90;93.30;;;;;;5136983;27;20360;-48
2022/11/01 13:03:04;;;;;;;;;;;18.90;93.30;;;;;;5136684;27;20265;-44
2022/11/01 13:05:38;;;;;;;;;;;18.90;93.30;;;;;;5136716;27;19999;-45
2022/11/01 13:08:15;;;;;;;;;;;18.90;93.30;;;;;;5136404;27;19965;-45
2022/11/01 13:10:45;;;;;;;;;;;18.90;93.30;;;;;;5136622;27;20007;-43
2022/11/01 13:13:31;;;;;;;;;;;18.90;93.30;;;;;;5136198;27;20560;-46
2022/11/01 13:16:01;;;;;;;;;;;18.90;93.30;;;;;;5136533;27;19976;-45
2022/11/01 13:18:32;;;;;;;;;;;18.90;93.30;;;;;;5136166;27;19914;-43
2022/11/01 13:21:01;;;;;;;;;;;18.90;93.30;;;;;;5136277;27;19907;-45
2022/11/01 13:23:29;;;;;;;;;;;18.90;93.30;;;;;;5136262;27;19946;-44
2022/11/01 13:26:00;;;;;;;;;;;18.90;93.30;;;;;;5136006;27;19970;-46
2022/11/01 13:28:47;;;;;;;;;;;18.90;93.30;;;;;;5136143;27;19915;-44
2022/11/01 13:31:31;;;;;;;;;;;18.90;93.30;;;;;;5135891;27;19922;-45
2022/11/01 13:33:59;;;;;;;;;;;18.90;93.30;;;;;;5136020;27;19907;-44
2022/11/01 13:36:25;;;;;;;;;;;18.90;93.30;;;;;;5135803;27;20259;-45
2022/11/01 13:39:09;;;;;;;;;;;18.90;93.30;;;;;;5135068;27;19971;-44
2022/11/01 13:41:38;;;;;;;;;;;18.90;93.30;;;;;;5135930;27;20002;-44
2022/11/01 13:44:16;;;;;;;;;;;18.90;93.30;;;;;;5135441;27;19908;-47
2022/11/01 13:46:57;;;;;;;;;;;18.90;93.30;;;;;;5135810;27;19935;-49
2022/11/01 13:49:40;;;;;;;;;;;18.90;93.40;;;;;;5135499;27;19980;-46
2022/11/01 13:52:20;;;;;;;;;;;18.90;93.40;;;;;;5135542;27;19908;-44
2022/11/01 13:54:50;;;;;;;;;;;18.90;93.40;;;;;;5135481;27;20357;-45
2022/11/01 13:57:17;;;;;;;;;;;18.90;93.40;;;;;;5135665;27;19915;-48
2022/11/01 13:59:44;;;;;;;;;;;18.90;93.30;;;;;;5135558;27;19907;-46
2022/11/01 14:02:22;;;;;;;;;;;18.90;93.40;;;;;;5135568;27;19976;-45
2022/11/01 14:04:54;;;;;;;;;;;18.90;93.40;;;;;;5135212;27;19972;-46
2022/11/01 14:07:20;;;;;;;;;;;18.90;93.40;;;;;;5135244;27;19919;-45
2022/11/01 14:09:49;;;;;;;;;;;18.90;93.40;;;;;;5135530;27;19919;-45
2022/11/01 14:12:30;;;;;;;;;;;18.90;93.40;;;;;;5135474;27;19908;-43
2022/11/01 14:15:14;;;;;;;;;;;18.90;93.40;;;;;;5134856;27;20354;-44
2022/11/01 14:17:45;;;;;;;;;;;18.90;93.40;;;;;;5135233;27;19968;-46
2022/11/01 14:20:13;;;;;;;;;;;18.90;93.40;;;;;;5134849;27;20453;-46
2022/11/01 14:22:40;;;;;;;;;;;18.90;93.40;;;;;;5134895;27;19915;-48
2022/11/01 14:25:12;;;;;;;;;;;18.90;93.40;;;;;;5135109;27;19908;-44
2022/11/01 14:27:39;;;;;;;;;;;18.90;93.40;;;;;;5135093;27;19907;-43
2022/11/01 14:30:15;;;;;;;;;;;18.90;93.40;;;;;;5134874;27;19922;-45